sensor_id;sensor_type;location;lat;lon;timestamp;pressure;altitude;pressure_sealevel;temperature;humidity
61786;BME280;47692;53.714;11.372;2023-07-13T00:00:23;100603.38;;;16.50;95.49
61786;BME280;47692;53.714;11.372;2023-07-13T00:02:48;100591.16;;;16.48;95.39
61786;BME280;47692;53.714;11.372;2023-07-13T00:05:14;100599.97;;;16.47;95.08
61786;BME280;47692;53.714;11.372;2023-07-13T00:07:39;100596.47;;;16.47;95.17
61786;BME280;47692;53.714;11.372;2023-07-13T00:10:05;100587.56;;;16.50;94.89
61786;BME280;47692;53.714;11.372;2023-07-13T00:12:34;100571.13;;;16.62;94.48
61786;BME280;47692;53.714;11.372;2023-07-13T00:15:04;100592.53;;;16.56;94.33
61786;BME280;47692;53.714;11.372;2023-07-13T00:17:30;100566.16;;;16.56;94.52
61786;BME280;47692;53.714;11.372;2023-07-13T00:19:56;100588.75;;;16.61;94.82
61786;BME280;47692;53.714;11.372;2023-07-13T00:22:23;100609.59;;;16.66;94.43
61786;BME280;47692;53.714;11.372;2023-07-13T00:24:51;100599.19;;;16.63;94.09
61786;BME280;47692;53.714;11.372;2023-07-13T00:27:17;100608.19;;;16.59;93.83
61786;BME280;47692;53.714;11.372;2023-07-13T00:29:43;100609.28;;;16.55;94.54
61786;BME280;47692;53.714;11.372;2023-07-13T00:32:09;100604.16;;;16.52;94.74
61786;BME280;47692;53.714;11.372;2023-07-13T00:34:35;100598.09;;;16.50;95.06
61786;BME280;47692;53.714;11.372;2023-07-13T00:37:00;100611.84;;;16.56;95.67
61786;BME280;47692;53.714;11.372;2023-07-13T00:39:26;100606.97;;;16.48;95.97
61786;BME280;47692;53.714;11.372;2023-07-13T00:41:51;100603.66;;;16.43;96.58
61786;BME280;47692;53.714;11.372;2023-07-13T00:44:18;100609.09;;;16.40;96.97
61786;BME280;47692;53.714;11.372;2023-07-13T00:46:44;100607.88;;;16.47;97.34
61786;BME280;47692;53.714;11.372;2023-07-13T00:49:12;100595.84;;;16.42;97.83
61786;BME280;47692;53.714;11.372;2023-07-13T00:54:15;100601.41;;;16.36;99.24
61786;BME280;47692;53.714;11.372;2023-07-13T00:56:45;100587.78;;;16.27;100.00
61786;BME280;47692;53.714;11.372;2023-07-13T00:59:13;100595.91;;;16.23;100.00
61786;BME280;47692;53.714;11.372;2023-07-13T01:01:40;100578.53;;;16.19;100.00
61786;BME280;47692;53.714;11.372;2023-07-13T01:04:06;100582.25;;;16.14;100.00
61786;BME280;47692;53.714;11.372;2023-07-13T01:06:35;100583.38;;;16.28;100.00
61786;BME280;47692;53.714;11.372;2023-07-13T01:09:01;100588.00;;;16.23;100.00
61786;BME280;47692;53.714;11.372;2023-07-13T01:11:26;100582.28;;;16.32;100.00
61786;BME280;47692;53.714;11.372;2023-07-13T01:13:52;100576.09;;;16.33;100.00
61786;BME280;47692;53.714;11.372;2023-07-13T01:16:25;100579.81;;;16.29;100.00
61786;BME280;47692;53.714;11.372;2023-07-13T01:18:52;100596.06;;;16.37;100.00
61786;BME280;47692;53.714;11.372;2023-07-13T01:21:17;100593.59;;;16.34;100.00
61786;BME280;47692;53.714;11.372;2023-07-13T01:23:44;100596.03;;;16.39;100.00
61786;BME280;47692;53.714;11.372;2023-07-13T01:26:10;100590.78;;;16.37;100.00
61786;BME280;47692;53.714;11.372;2023-07-13T01:28:36;100578.09;;;16.28;100.00
61786;BME280;47692;53.714;11.372;2023-07-13T01:31:02;100585.38;;;16.23;100.00
61786;BME280;47692;53.714;11.372;2023-07-13T01:33:28;100589.00;;;16.20;100.00
61786;BME280;47692;53.714;11.372;2023-07-13T01:35:54;100587.38;;;16.18;100.00
61786;BME280;47692;53.714;11.372;2023-07-13T01:38:21;100573.00;;;16.06;100.00
61786;BME280;47692;53.714;11.372;2023-07-13T01:40:47;100591.53;;;16.04;100.00
61786;BME280;47692;53.714;11.372;2023-07-13T01:43:13;100593.66;;;15.96;100.00
61786;BME280;47692;53.714;11.372;2023-07-13T01:45:38;100599.22;;;15.90;100.00
61786;BME280;47692;53.714;11.372;2023-07-13T01:48:04;100602.00;;;15.87;100.00
61786;BME280;47692;53.714;11.372;2023-07-13T01:50:32;100603.03;;;15.82;100.00
61786;BME280;47692;53.714;11.372;2023-07-13T01:52:57;100613.16;;;15.92;100.00
61786;BME280;47692;53.714;11.372;2023-07-13T01:55:22;100602.63;;;15.92;100.00
61786;BME280;47692;53.714;11.372;2023-07-13T01:57:48;100608.91;;;15.89;100.00
61786;BME280;47692;53.714;11.372;2023-07-13T02:00:14;100611.66;;;15.86;100.00
61786;BME280;47692;53.714;11.372;2023-07-13T02:02:40;100599.38;;;15.87;100.00
61786;BME280;47692;53.714;11.372;2023-07-13T02:05:06;100614.25;;;15.88;100.00
61786;BME280;47692;53.714;11.372;2023-07-13T02:07:31;100617.88;;;15.85;100.00
61786;BME280;47692;53.714;11.372;2023-07-13T02:09:57;100614.63;;;15.78;100.00
61786;BME280;47692;53.714;11.372;2023-07-13T02:12:22;100607.00;;;15.72;100.00
61786;BME280;47692;53.714;11.372;2023-07-13T02:14:48;100614.91;;;15.72;100.00
61786;BME280;47692;53.714;11.372;2023-07-13T02:17:14;100612.16;;;15.75;100.00
61786;BME280;47692;53.714;11.372;2023-07-13T02:19:39;100623.44;;;15.77;100.00
61786;BME280;47692;53.714;11.372;2023-07-13T02:22:05;100629.25;;;15.86;100.00
61786;BME280;47692;53.714;11.372;2023-07-13T02:24:31;100623.97;;;15.86;100.00
61786;BME280;47692;53.714;11.372;2023-07-13T02:26:56;100610.16;;;15.80;100.00
61786;BME280;47692;53.714;11.372;2023-07-13T02:29:22;100615.53;;;15.77;100.00
61786;BME280;47692;53.714;11.372;2023-07-13T02:31:47;100619.09;;;15.76;100.00
61786;BME280;47692;53.714;11.372;2023-07-13T02:34:13;100616.25;;;15.62;100.00
61786;BME280;47692;53.714;11.372;2023-07-13T02:36:38;100626.91;;;15.59;100.00
61786;BME280;47692;53.714;11.372;2023-07-13T02:39:06;100623.78;;;15.50;100.00
61786;BME280;47692;53.714;11.372;2023-07-13T02:41:32;100607.72;;;15.57;100.00
61786;BME280;47692;53.714;11.372;2023-07-13T02:43:58;100600.00;;;15.33;100.00
61786;BME280;47692;53.714;11.372;2023-07-13T02:46:36;100619.19;;;15.35;100.00
61786;BME280;47692;53.714;11.372;2023-07-13T02:49:03;100616.22;;;15.43;100.00
61786;BME280;47692;53.714;11.372;2023-07-13T02:51:28;100614.09;;;15.32;100.00
61786;BME280;47692;53.714;11.372;2023-07-13T02:53:54;100610.13;;;15.22;100.00
61786;BME280;47692;53.714;11.372;2023-07-13T02:56:24;100590.16;;;15.17;100.00
61786;BME280;47692;53.714;11.372;2023-07-13T02:58:50;100594.88;;;15.09;100.00
61786;BME280;47692;53.714;11.372;2023-07-13T03:01:16;100609.28;;;15.21;100.00
61786;BME280;47692;53.714;11.372;2023-07-13T03:03:47;100616.38;;;15.19;100.00
61786;BME280;47692;53.714;11.372;2023-07-13T03:06:14;100609.63;;;15.13;100.00
61786;BME280;47692;53.714;11.372;2023-07-13T03:08:39;100595.56;;;15.14;100.00
61786;BME280;47692;53.714;11.372;2023-07-13T03:11:10;100616.72;;;15.11;100.00
61786;BME280;47692;53.714;11.372;2023-07-13T03:13:37;100600.47;;;15.01;100.00
61786;BME280;47692;53.714;11.372;2023-07-13T03:16:03;100613.59;;;15.03;100.00
61786;BME280;47692;53.714;11.372;2023-07-13T03:18:29;100621.66;;;14.98;100.00
61786;BME280;47692;53.714;11.372;2023-07-13T03:20:54;100623.16;;;15.04;100.00
61786;BME280;47692;53.714;11.372;2023-07-13T03:23:20;100622.50;;;14.99;100.00
61786;BME280;47692;53.714;11.372;2023-07-13T03:25:47;100629.22;;;15.06;100.00
61786;BME280;47692;53.714;11.372;2023-07-13T03:28:13;100618.38;;;14.93;100.00
61786;BME280;47692;53.714;11.372;2023-07-13T03:30:39;100633.16;;;14.96;100.00
61786;BME280;47692;53.714;11.372;2023-07-13T03:33:05;100609.63;;;14.93;100.00
61786;BME280;47692;53.714;11.372;2023-07-13T03:35:30;100603.34;;;14.97;100.00
61786;BME280;47692;53.714;11.372;2023-07-13T03:37:58;100601.28;;;14.83;100.00
61786;BME280;47692;53.714;11.372;2023-07-13T03:40:24;100607.13;;;14.90;100.00
61786;BME280;47692;53.714;11.372;2023-07-13T03:42:51;100612.50;;;14.86;100.00
61786;BME280;47692;53.714;11.372;2023-07-13T03:45:16;100609.75;;;14.90;100.00
61786;BME280;47692;53.714;11.372;2023-07-13T03:47:41;100632.63;;;14.88;100.00
61786;BME280;47692;53.714;11.372;2023-07-13T03:50:07;100617.91;;;14.83;100.00
61786;BME280;47692;53.714;11.372;2023-07-13T03:52:32;100611.94;;;14.80;100.00
61786;BME280;47692;53.714;11.372;2023-07-13T03:54:58;100621.19;;;14.89;100.00
61786;BME280;47692;53.714;11.372;2023-07-13T03:57:23;100608.13;;;14.87;100.00
61786;BME280;47692;53.714;11.372;2023-07-13T03:59:48;100624.63;;;14.91;100.00
61786;BME280;47692;53.714;11.372;2023-07-13T04:02:14;100622.09;;;14.88;100.00
61786;BME280;47692;53.714;11.372;2023-07-13T04:04:39;100627.03;;;14.95;100.00
61786;BME280;47692;53.714;11.372;2023-07-13T04:07:06;100624.47;;;14.94;100.00
61786;BME280;47692;53.714;11.372;2023-07-13T04:09:32;100630.31;;;15.00;100.00
61786;BME280;47692;53.714;11.372;2023-07-13T04:11:57;100612.84;;;14.99;100.00
61786;BME280;47692;53.714;11.372;2023-07-13T04:14:23;100610.41;;;14.95;100.00
61786;BME280;47692;53.714;11.372;2023-07-13T04:16:48;100627.50;;;15.05;100.00
61786;BME280;47692;53.714;11.372;2023-07-13T04:19:13;100602.09;;;15.06;100.00
61786;BME280;47692;53.714;11.372;2023-07-13T04:21:39;100618.69;;;15.06;100.00
61786;BME280;47692;53.714;11.372;2023-07-13T04:24:04;100617.78;;;15.07;100.00
61786;BME280;47692;53.714;11.372;2023-07-13T04:26:30;100625.41;;;15.13;100.00
61786;BME280;47692;53.714;11.372;2023-07-13T04:28:56;100636.91;;;15.11;100.00
61786;BME280;47692;53.714;11.372;2023-07-13T04:31:21;100613.50;;;15.05;100.00
61786;BME280;47692;53.714;11.372;2023-07-13T04:33:48;100585.16;;;15.11;100.00
61786;BME280;47692;53.714;11.372;2023-07-13T04:36:14;100611.34;;;15.14;100.00
61786;BME280;47692;53.714;11.372;2023-07-13T04:38:39;100607.75;;;15.15;100.00
61786;BME280;47692;53.714;11.372;2023-07-13T04:41:07;100611.84;;;15.23;100.00
61786;BME280;47692;53.714;11.372;2023-07-13T04:43:33;100603.19;;;15.21;100.00
61786;BME280;47692;53.714;11.372;2023-07-13T04:46:11;100619.19;;;15.35;100.00
61786;BME280;47692;53.714;11.372;2023-07-13T04:48:37;100614.34;;;15.26;100.00
61786;BME280;47692;53.714;11.372;2023-07-13T04:51:03;100623.69;;;15.33;100.00
61786;BME280;47692;53.714;11.372;2023-07-13T04:53:30;100638.25;;;15.40;100.00
61786;BME280;47692;53.714;11.372;2023-07-13T04:55:56;100632.16;;;15.40;100.00
61786;BME280;47692;53.714;11.372;2023-07-13T04:58:22;100634.31;;;15.50;100.00
61786;BME280;47692;53.714;11.372;2023-07-13T05:00:47;100637.59;;;15.56;100.00
61786;BME280;47692;53.714;11.372;2023-07-13T05:03:13;100635.59;;;15.61;100.00
61786;BME280;47692;53.714;11.372;2023-07-13T05:05:38;100647.41;;;15.71;100.00
61786;BME280;47692;53.714;11.372;2023-07-13T05:08:04;100604.28;;;15.74;100.00
61786;BME280;47692;53.714;11.372;2023-07-13T05:10:29;100634.75;;;15.79;100.00
61786;BME280;47692;53.714;11.372;2023-07-13T05:12:54;100646.88;;;15.83;100.00
61786;BME280;47692;53.714;11.372;2023-07-13T05:15:21;100641.50;;;15.87;100.00
61786;BME280;47692;53.714;11.372;2023-07-13T05:17:48;100636.06;;;15.90;100.00
61786;BME280;47692;53.714;11.372;2023-07-13T05:20:14;100634.22;;;15.92;100.00
61786;BME280;47692;53.714;11.372;2023-07-13T05:22:39;100639.50;;;15.92;100.00
61786;BME280;47692;53.714;11.372;2023-07-13T05:25:06;100634.94;;;15.95;100.00
61786;BME280;47692;53.714;11.372;2023-07-13T05:27:32;100636.69;;;15.95;100.00
61786;BME280;47692;53.714;11.372;2023-07-13T05:29:57;100637.19;;;16.03;100.00
61786;BME280;47692;53.714;11.372;2023-07-13T05:32:22;100638.91;;;16.04;100.00
61786;BME280;47692;53.714;11.372;2023-07-13T05:34:48;100635.00;;;16.13;100.00
61786;BME280;47692;53.714;11.372;2023-07-13T05:37:13;100648.59;;;16.23;100.00
61786;BME280;47692;53.714;11.372;2023-07-13T05:39:38;100639.59;;;16.27;100.00
61786;BME280;47692;53.714;11.372;2023-07-13T05:42:05;100650.75;;;16.32;100.00
61786;BME280;47692;53.714;11.372;2023-07-13T05:44:30;100650.38;;;16.40;98.65
61786;BME280;47692;53.714;11.372;2023-07-13T05:46:56;100642.97;;;16.48;96.96
61786;BME280;47692;53.714;11.372;2023-07-13T05:49:22;100655.25;;;16.67;94.29
61786;BME280;47692;53.714;11.372;2023-07-13T05:51:47;100656.09;;;16.67;91.16
61786;BME280;47692;53.714;11.372;2023-07-13T05:54:13;100665.09;;;16.80;90.62
61786;BME280;47692;53.714;11.372;2023-07-13T05:56:38;100654.69;;;16.96;90.95
61786;BME280;47692;53.714;11.372;2023-07-13T05:59:03;100659.81;;;17.00;89.63
61786;BME280;47692;53.714;11.372;2023-07-13T06:01:29;100663.50;;;17.13;89.04
61786;BME280;47692;53.714;11.372;2023-07-13T06:03:55;100663.59;;;17.11;86.84
61786;BME280;47692;53.714;11.372;2023-07-13T06:06:20;100664.38;;;17.14;86.94
61786;BME280;47692;53.714;11.372;2023-07-13T06:08:45;100662.28;;;17.20;87.34
61786;BME280;47692;53.714;11.372;2023-07-13T06:11:20;100655.06;;;17.24;86.31
61786;BME280;47692;53.714;11.372;2023-07-13T06:13:46;100659.09;;;17.31;85.66
61786;BME280;47692;53.714;11.372;2023-07-13T06:16:12;100660.09;;;17.28;84.15
61786;BME280;47692;53.714;11.372;2023-07-13T06:18:39;100657.22;;;17.33;84.64
61786;BME280;47692;53.714;11.372;2023-07-13T06:21:06;100669.31;;;17.37;84.44
61786;BME280;47692;53.714;11.372;2023-07-13T06:23:32;100669.63;;;17.49;84.19
61786;BME280;47692;53.714;11.372;2023-07-13T06:25:57;100672.09;;;17.52;83.64
61786;BME280;47692;53.714;11.372;2023-07-13T06:28:22;100663.78;;;17.59;83.40
61786;BME280;47692;53.714;11.372;2023-07-13T06:30:47;100663.28;;;17.69;82.87
61786;BME280;47692;53.714;11.372;2023-07-13T06:33:13;100667.19;;;17.77;82.44
61786;BME280;47692;53.714;11.372;2023-07-13T06:35:38;100665.00;;;17.86;81.78
61786;BME280;47692;53.714;11.372;2023-07-13T06:38:04;100661.88;;;17.95;81.10
61786;BME280;47692;53.714;11.372;2023-07-13T06:40:30;100665.75;;;18.05;80.78
61786;BME280;47692;53.714;11.372;2023-07-13T06:42:55;100679.38;;;18.14;81.09
61786;BME280;47692;53.714;11.372;2023-07-13T06:45:21;100679.81;;;18.22;78.87
61786;BME280;47692;53.714;11.372;2023-07-13T06:47:46;100685.00;;;18.39;78.82
61786;BME280;47692;53.714;11.372;2023-07-13T06:50:11;100688.41;;;18.41;78.23
61786;BME280;47692;53.714;11.372;2023-07-13T06:52:37;100683.63;;;18.48;77.86
61786;BME280;47692;53.714;11.372;2023-07-13T06:55:02;100693.06;;;18.52;78.55
61786;BME280;47692;53.714;11.372;2023-07-13T06:57:28;100681.56;;;18.53;78.29
61786;BME280;47692;53.714;11.372;2023-07-13T06:59:53;100688.91;;;18.64;78.44
61786;BME280;47692;53.714;11.372;2023-07-13T07:02:18;100683.72;;;18.63;77.72
61786;BME280;47692;53.714;11.372;2023-07-13T07:04:44;100687.38;;;18.60;77.19
61786;BME280;47692;53.714;11.372;2023-07-13T07:07:09;100688.91;;;18.64;77.10
61786;BME280;47692;53.714;11.372;2023-07-13T07:09:34;100701.63;;;18.73;75.90
61786;BME280;47692;53.714;11.372;2023-07-13T07:12:00;100698.44;;;18.67;75.66
61786;BME280;47692;53.714;11.372;2023-07-13T07:14:25;100692.47;;;18.63;75.11
61786;BME280;47692;53.714;11.372;2023-07-13T07:16:50;100692.31;;;18.66;76.03
61786;BME280;47692;53.714;11.372;2023-07-13T07:19:16;100695.34;;;18.74;75.46
61786;BME280;47692;53.714;11.372;2023-07-13T07:21:41;100693.69;;;18.73;75.77
61786;BME280;47692;53.714;11.372;2023-07-13T07:24:07;100702.00;;;18.82;75.27
61786;BME280;47692;53.714;11.372;2023-07-13T07:26:32;100709.16;;;18.96;74.09
61786;BME280;47692;53.714;11.372;2023-07-13T07:28:58;100711.38;;;19.03;73.23
61786;BME280;47692;53.714;11.372;2023-07-13T07:31:23;100697.75;;;18.95;72.35
61786;BME280;47692;53.714;11.372;2023-07-13T07:33:48;100695.09;;;18.95;73.55
61786;BME280;47692;53.714;11.372;2023-07-13T07:36:15;100708.22;;;18.97;74.13
61786;BME280;47692;53.714;11.372;2023-07-13T07:38:41;100709.59;;;18.88;73.84
61786;BME280;47692;53.714;11.372;2023-07-13T07:41:07;100714.09;;;18.86;73.99
61786;BME280;47692;53.714;11.372;2023-07-13T07:43:32;100702.00;;;18.82;74.40
61786;BME280;47692;53.714;11.372;2023-07-13T07:45:57;100707.03;;;19.02;75.50
61786;BME280;47692;53.714;11.372;2023-07-13T07:48:23;100712.44;;;19.15;74.30
61786;BME280;47692;53.714;11.372;2023-07-13T07:50:48;100710.84;;;19.13;72.97
61786;BME280;47692;53.714;11.372;2023-07-13T07:53:13;100684.69;;;18.92;72.52
61786;BME280;47692;53.714;11.372;2023-07-13T07:55:39;100702.34;;;18.92;74.14
61786;BME280;47692;53.714;11.372;2023-07-13T07:58:05;100706.09;;;19.03;73.57
61786;BME280;47692;53.714;11.372;2023-07-13T08:00:30;100708.75;;;19.18;73.61
61786;BME280;47692;53.714;11.372;2023-07-13T08:02:57;100710.09;;;19.25;73.61
61786;BME280;47692;53.714;11.372;2023-07-13T08:05:23;100716.69;;;19.48;74.64
61786;BME280;47692;53.714;11.372;2023-07-13T08:07:48;100710.84;;;19.72;73.59
61786;BME280;47692;53.714;11.372;2023-07-13T08:10:13;100738.31;;;19.85;73.29
61786;BME280;47692;53.714;11.372;2023-07-13T08:12:40;100720.28;;;19.76;73.37
61786;BME280;47692;53.714;11.372;2023-07-13T08:15:08;100723.03;;;19.75;73.78
61786;BME280;47692;53.714;11.372;2023-07-13T08:17:34;100720.28;;;19.76;71.76
61786;BME280;47692;53.714;11.372;2023-07-13T08:20:00;100719.81;;;19.69;71.43
61786;BME280;47692;53.714;11.372;2023-07-13T08:22:25;100700.78;;;19.48;72.35
61786;BME280;47692;53.714;11.372;2023-07-13T08:24:50;100723.78;;;19.62;73.09
61786;BME280;47692;53.714;11.372;2023-07-13T08:27:21;100708.47;;;19.82;73.50
61786;BME280;47692;53.714;11.372;2023-07-13T08:29:48;100724.38;;;20.11;73.37
61786;BME280;47692;53.714;11.372;2023-07-13T08:32:13;100712.78;;;20.26;71.33
61786;BME280;47692;53.714;11.372;2023-07-13T08:34:39;100716.50;;;20.24;70.54
61786;BME280;47692;53.714;11.372;2023-07-13T08:37:04;100719.00;;;20.40;69.97
61786;BME280;47692;53.714;11.372;2023-07-13T08:39:31;100712.28;;;20.48;68.12
61786;BME280;47692;53.714;11.372;2023-07-13T08:42:01;100710.47;;;20.49;67.52
61786;BME280;47692;53.714;11.372;2023-07-13T08:44:40;100720.09;;;20.64;68.59
61786;BME280;47692;53.714;11.372;2023-07-13T08:47:10;100713.25;;;20.75;68.57
61786;BME280;47692;53.714;11.372;2023-07-13T08:49:38;100714.81;;;20.50;68.44
61786;BME280;47692;53.714;11.372;2023-07-13T08:52:11;100702.31;;;20.52;69.06
61786;BME280;47692;53.714;11.372;2023-07-13T08:54:44;100701.38;;;20.53;68.67
61786;BME280;47692;53.714;11.372;2023-07-13T08:57:15;100700.22;;;20.57;68.71
61786;BME280;47692;53.714;11.372;2023-07-13T08:59:41;100693.41;;;20.53;69.53
61786;BME280;47692;53.714;11.372;2023-07-13T09:02:19;100705.31;;;20.60;69.85
61786;BME280;47692;53.714;11.372;2023-07-13T09:05:12;100709.50;;;20.50;72.28
61786;BME280;47692;53.714;11.372;2023-07-13T09:07:45;100709.25;;;20.13;74.25
61786;BME280;47692;53.714;11.372;2023-07-13T09:10:20;100697.69;;;19.85;75.50
61786;BME280;47692;53.714;11.372;2023-07-13T09:15:53;100710.06;;;20.28;74.79
61786;BME280;47692;53.714;11.372;2023-07-13T09:20:54;100710.28;;;20.52;72.95
61786;BME280;47692;53.714;11.372;2023-07-13T09:23:23;100715.72;;;20.78;71.27
61786;BME280;47692;53.714;11.372;2023-07-13T09:25:54;100717.16;;;20.96;68.75
61786;BME280;47692;53.714;11.372;2023-07-13T09:28:29;100717.03;;;20.71;67.00
61786;BME280;47692;53.714;11.372;2023-07-13T09:31:09;100726.50;;;20.75;68.56
61786;BME280;47692;53.714;11.372;2023-07-13T09:33:37;100733.47;;;20.90;67.40
61786;BME280;47692;53.714;11.372;2023-07-13T09:36:17;100716.06;;;20.86;65.94
61786;BME280;47692;53.714;11.372;2023-07-13T09:38:43;100738.78;;;20.90;64.57
61786;BME280;47692;53.714;11.372;2023-07-13T09:44:14;100724.50;;;20.78;66.70
61786;BME280;47692;53.714;11.372;2023-07-13T09:46:45;100722.88;;;20.90;66.14
61786;BME280;47692;53.714;11.372;2023-07-13T09:49:11;100729.78;;;21.06;66.86
61786;BME280;47692;53.714;11.372;2023-07-13T09:51:43;100721.00;;;21.18;66.40
61786;BME280;47692;53.714;11.372;2023-07-13T09:54:27;100724.06;;;21.12;66.85
61786;BME280;47692;53.714;11.372;2023-07-13T09:57:00;100718.28;;;20.92;66.80
61786;BME280;47692;53.714;11.372;2023-07-13T09:59:32;100715.63;;;20.92;66.64
61786;BME280;47692;53.714;11.372;2023-07-13T10:01:58;100700.56;;;20.80;65.47
61786;BME280;47692;53.714;11.372;2023-07-13T10:04:34;100716.78;;;20.88;64.84
61786;BME280;47692;53.714;11.372;2023-07-13T10:07:11;100715.97;;;21.01;64.21
61786;BME280;47692;53.714;11.372;2023-07-13T10:09:38;100717.38;;;21.06;64.16
61786;BME280;47692;53.714;11.372;2023-07-13T10:12:14;100715.03;;;21.14;62.15
61786;BME280;47692;53.714;11.372;2023-07-13T10:14:40;100712.72;;;21.23;62.40
61786;BME280;47692;53.714;11.372;2023-07-13T10:17:10;100729.09;;;21.29;62.89
61786;BME280;47692;53.714;11.372;2023-07-13T10:19:37;100730.25;;;21.25;63.68
61786;BME280;47692;53.714;11.372;2023-07-13T10:22:22;100726.53;;;21.41;63.89
61786;BME280;47692;53.714;11.372;2023-07-13T10:24:49;100710.72;;;21.39;62.65
61786;BME280;47692;53.714;11.372;2023-07-13T10:29:47;100717.22;;;21.22;61.13
61786;BME280;47692;53.714;11.372;2023-07-13T10:32:13;100721.03;;;21.31;62.86
61786;BME280;47692;53.714;11.372;2023-07-13T10:34:45;100727.19;;;21.44;63.16
61786;BME280;47692;53.714;11.372;2023-07-13T10:37:19;100715.09;;;21.53;62.89
61786;BME280;47692;53.714;11.372;2023-07-13T10:39:46;100717.03;;;21.64;63.27
61786;BME280;47692;53.714;11.372;2023-07-13T10:42:15;100714.50;;;21.62;63.71
61786;BME280;47692;53.714;11.372;2023-07-13T10:44:47;100716.78;;;21.54;63.66
61786;BME280;47692;53.714;11.372;2023-07-13T10:47:15;100728.06;;;21.45;64.01
61786;BME280;47692;53.714;11.372;2023-07-13T10:49:43;100700.81;;;21.03;64.19
61786;BME280;47692;53.714;11.372;2023-07-13T10:52:49;100704.59;;;20.98;65.52
61786;BME280;47692;53.714;11.372;2023-07-13T10:55:35;100708.66;;;21.04;65.96
61786;BME280;47692;53.714;11.372;2023-07-13T10:58:18;100717.28;;;21.08;66.48
61786;BME280;47692;53.714;11.372;2023-07-13T11:03:46;100722.56;;;21.74;63.88
61786;BME280;47692;53.714;11.372;2023-07-13T11:06:33;100718.09;;;21.87;62.86
61786;BME280;47692;53.714;11.372;2023-07-13T11:09:40;100713.72;;;21.86;61.55
61786;BME280;47692;53.714;11.372;2023-07-13T11:12:27;100715.13;;;21.66;61.61
61786;BME280;47692;53.714;11.372;2023-07-13T11:19:52;100713.56;;;21.23;63.31
61786;BME280;47692;53.714;11.372;2023-07-13T11:22:23;100728.38;;;21.27;63.33
61786;BME280;47692;53.714;11.372;2023-07-13T11:24:56;100724.34;;;21.35;63.66
61786;BME280;47692;53.714;11.372;2023-07-13T11:30:07;100720.88;;;21.60;62.47
61786;BME280;47692;53.714;11.372;2023-07-13T11:32:33;100732.31;;;21.86;61.98
61786;BME280;47692;53.714;11.372;2023-07-13T11:34:59;100724.44;;;21.98;60.70
61786;BME280;47692;53.714;11.372;2023-07-13T11:37:25;100731.47;;;21.99;59.31
61786;BME280;47692;53.714;11.372;2023-07-13T11:39:51;100719.88;;;21.87;59.56
61786;BME280;47692;53.714;11.372;2023-07-13T11:42:18;100731.84;;;22.18;61.24
61786;BME280;47692;53.714;11.372;2023-07-13T11:44:48;100728.25;;;22.19;58.04
61786;BME280;47692;53.714;11.372;2023-07-13T11:47:18;100732.78;;;22.43;58.66
61786;BME280;47692;53.714;11.372;2023-07-13T11:49:54;100743.25;;;22.57;54.65
61786;BME280;47692;53.714;11.372;2023-07-13T11:52:34;100739.00;;;22.55;54.16
61786;BME280;47692;53.714;11.372;2023-07-13T11:55:04;100735.00;;;22.49;54.81
61786;BME280;47692;53.714;11.372;2023-07-13T11:57:45;100728.47;;;22.53;55.52
61786;BME280;47692;53.714;11.372;2023-07-13T12:00:13;100725.22;;;22.37;54.65
61786;BME280;47692;53.714;11.372;2023-07-13T12:02:45;100715.19;;;22.53;54.29
61786;BME280;47692;53.714;11.372;2023-07-13T12:05:13;100716.75;;;22.56;53.17
61786;BME280;47692;53.714;11.372;2023-07-13T12:07:40;100719.97;;;22.72;53.49
61786;BME280;47692;53.714;11.372;2023-07-13T12:12:33;100726.41;;;23.05;53.71
61786;BME280;47692;53.714;11.372;2023-07-13T12:14:58;100730.03;;;23.04;53.42
61786;BME280;47692;53.714;11.372;2023-07-13T12:17:25;100714.34;;;23.13;53.82
61786;BME280;47692;53.714;11.372;2023-07-13T12:19:51;100731.00;;;23.28;53.84
61786;BME280;47692;53.714;11.372;2023-07-13T12:22:18;100726.47;;;23.17;54.06
61786;BME280;47692;53.714;11.372;2023-07-13T12:24:45;100732.81;;;23.38;55.20
61786;BME280;47692;53.714;11.372;2023-07-13T12:33:11;100722.84;;;23.65;52.85
61786;BME280;47692;53.714;11.372;2023-07-13T12:35:47;100743.53;;;23.84;50.09
61786;BME280;47692;53.714;11.372;2023-07-13T12:38:13;100736.38;;;23.73;48.89
61786;BME280;47692;53.714;11.372;2023-07-13T12:40:39;100740.75;;;23.74;49.53
61786;BME280;47692;53.714;11.372;2023-07-13T12:43:11;100742.91;;;23.46;49.39
61786;BME280;47692;53.714;11.372;2023-07-13T12:45:37;100723.81;;;23.17;49.18
61786;BME280;47692;53.714;11.372;2023-07-13T12:48:13;100722.56;;;23.10;50.22
61786;BME280;47692;53.714;11.372;2023-07-13T12:50:42;100742.16;;;23.08;50.95
61786;BME280;47692;53.714;11.372;2023-07-13T12:53:12;100745.94;;;23.53;51.10
61786;BME280;47692;53.714;11.372;2023-07-13T12:55:48;100759.19;;;23.88;50.37
61786;BME280;47692;53.714;11.372;2023-07-13T12:58:21;100756.06;;;24.17;49.95
61786;BME280;47692;53.714;11.372;2023-07-13T13:00:50;100772.13;;;24.50;49.82
61786;BME280;47692;53.714;11.372;2023-07-13T13:03:27;100763.75;;;24.66;51.41
61786;BME280;47692;53.714;11.372;2023-07-13T13:05:57;100742.00;;;24.15;53.56
61786;BME280;47692;53.714;11.372;2023-07-13T13:08:24;100739.78;;;23.75;54.85
61786;BME280;47692;53.714;11.372;2023-07-13T13:10:50;100725.91;;;23.36;55.48